sensor_id;sensor_type;location;lat;lon;timestamp;pressure;altitude;pressure_sealevel;temperature;humidity
19150;BME280;9707;49.158;8.632;2023-04-06T00:02:11;100715.63;;;18.15;30.64
19150;BME280;9707;49.158;8.632;2023-04-06T00:04:36;100710.25;;;18.15;31.13
19150;BME280;9707;49.158;8.632;2023-04-06T00:07:02;100714.88;;;18.13;30.60
19150;BME280;9707;49.158;8.632;2023-04-06T00:09:27;100710.34;;;18.13;30.52
19150;BME280;9707;49.158;8.632;2023-04-06T00:11:52;100712.28;;;18.11;30.18
19150;BME280;9707;49.158;8.632;2023-04-06T00:14:18;100711.41;;;18.11;30.71
19150;BME280;9707;49.158;8.632;2023-04-06T00:16:43;100703.31;;;18.11;30.86
19150;BME280;9707;49.158;8.632;2023-04-06T00:19:08;100705.16;;;18.10;31.05
19150;BME280;9707;49.158;8.632;2023-04-06T00:21:33;100709.69;;;18.10;30.82
19150;BME280;9707;49.158;8.632;2023-04-06T00:23:59;100702.56;;;18.09;30.88
19150;BME280;9707;49.158;8.632;2023-04-06T00:26:24;100700.84;;;18.08;30.86
19150;BME280;9707;49.158;8.632;2023-04-06T00:28:49;100705.25;;;18.09;30.77
19150;BME280;9707;49.158;8.632;2023-04-06T00:31:17;100706.22;;;18.08;31.03
19150;BME280;9707;49.158;8.632;2023-04-06T00:33:42;100699.97;;;18.07;30.90
19150;BME280;9707;49.158;8.632;2023-04-06T00:36:07;100699.06;;;18.07;31.10
19150;BME280;9707;49.158;8.632;2023-04-06T00:38:32;100699.97;;;18.07;31.32
19150;BME280;9707;49.158;8.632;2023-04-06T00:40:58;100695.44;;;18.08;31.17
19150;BME280;9707;49.158;8.632;2023-04-06T00:43:23;100693.69;;;18.07;31.28
19150;BME280;9707;49.158;8.632;2023-04-06T00:45:49;100695.44;;;18.08;30.91
19150;BME280;9707;49.158;8.632;2023-04-06T00:48:14;100693.69;;;18.07;30.73
19150;BME280;9707;49.158;8.632;2023-04-06T00:50:40;100690.06;;;18.08;31.15
19150;BME280;9707;49.158;8.632;2023-04-06T00:53:05;100688.28;;;18.07;31.17
19150;BME280;9707;49.158;8.632;2023-04-06T00:55:31;100686.47;;;18.07;30.99
19150;BME280;9707;49.158;8.632;2023-04-06T00:57:58;100690.91;;;18.08;30.86
19150;BME280;9707;49.158;8.632;2023-04-06T01:00:23;100687.34;;;18.08;30.73
19150;BME280;9707;49.158;8.632;2023-04-06T01:02:49;100677.50;;;18.07;30.82
19150;BME280;9707;49.158;8.632;2023-04-06T01:05:14;100679.38;;;18.06;30.62
19150;BME280;9707;49.158;8.632;2023-04-06T01:07:40;100682.16;;;18.05;30.35
19150;BME280;9707;49.158;8.632;2023-04-06T01:10:05;100680.50;;;18.02;30.93
19150;BME280;9707;49.158;8.632;2023-04-06T01:12:31;100678.69;;;18.03;30.99
19150;BME280;9707;49.158;8.632;2023-04-06T01:14:56;100677.91;;;18.01;31.02
19150;BME280;9707;49.158;8.632;2023-04-06T01:17:21;100678.88;;;18.00;30.88
19150;BME280;9707;49.158;8.632;2023-04-06T01:19:47;100670.78;;;18.00;31.10
19150;BME280;9707;49.158;8.632;2023-04-06T01:22:17;100673.50;;;18.00;30.85
19150;BME280;9707;49.158;8.632;2023-04-06T01:24:43;100678.97;;;17.98;30.68
19150;BME280;9707;49.158;8.632;2023-04-06T01:27:08;100672.75;;;17.98;30.79
19150;BME280;9707;49.158;8.632;2023-04-06T01:29:33;100670.03;;;17.98;30.98
19150;BME280;9707;49.158;8.632;2023-04-06T01:31:58;100665.59;;;17.97;30.44
19150;BME280;9707;49.158;8.632;2023-04-06T01:34:24;100660.19;;;17.97;30.38
19150;BME280;9707;49.158;8.632;2023-04-06T01:36:49;100664.75;;;17.96;30.64
19150;BME280;9707;49.158;8.632;2023-04-06T01:39:15;100659.34;;;17.96;30.56
19150;BME280;9707;49.158;8.632;2023-04-06T01:41:40;100663.88;;;17.96;30.61
19150;BME280;9707;49.158;8.632;2023-04-06T01:44:05;100662.16;;;17.95;30.70
19150;BME280;9707;49.158;8.632;2023-04-06T01:46:31;100667.53;;;17.95;30.81
19150;BME280;9707;49.158;8.632;2023-04-06T01:48:56;100661.25;;;17.94;30.72
19150;BME280;9707;49.158;8.632;2023-04-06T01:51:21;100655.88;;;17.94;30.76
19150;BME280;9707;49.158;8.632;2023-04-06T01:53:46;100660.41;;;17.94;30.64
19150;BME280;9707;49.158;8.632;2023-04-06T01:56:13;100656.84;;;17.93;31.02
19150;BME280;9707;49.158;8.632;2023-04-06T01:58:38;100658.56;;;17.94;30.73
19150;BME280;9707;49.158;8.632;2023-04-06T02:01:03;100663.13;;;17.94;31.13
19150;BME280;9707;49.158;8.632;2023-04-06T02:03:29;100661.25;;;17.94;31.01
19150;BME280;9707;49.158;8.632;2023-04-06T02:05:55;100662.16;;;17.95;31.04
19150;BME280;9707;49.158;8.632;2023-04-06T02:08:20;100663.88;;;17.96;30.88
19150;BME280;9707;49.158;8.632;2023-04-06T02:10:46;100659.34;;;17.96;30.45
19150;BME280;9707;49.158;8.632;2023-04-06T02:13:11;100663.03;;;17.95;30.29
19150;BME280;9707;49.158;8.632;2023-04-06T02:15:36;100660.41;;;17.94;30.76
19150;BME280;9707;49.158;8.632;2023-04-06T02:18:01;100659.53;;;17.93;30.87
19150;BME280;9707;49.158;8.632;2023-04-06T02:20:27;100651.44;;;17.93;30.99
19150;BME280;9707;49.158;8.632;2023-04-06T02:22:52;100655.03;;;17.94;30.64
19150;BME280;9707;49.158;8.632;2023-04-06T02:25:17;100655.03;;;17.94;30.81
19150;BME280;9707;49.158;8.632;2023-04-06T02:27:43;100648.75;;;17.93;30.73
19150;BME280;9707;49.158;8.632;2023-04-06T02:30:08;100647.91;;;17.93;30.43
19150;BME280;9707;49.158;8.632;2023-04-06T02:32:34;100650.63;;;17.93;30.99
19150;BME280;9707;49.158;8.632;2023-04-06T02:34:59;100656.94;;;17.92;30.55
19150;BME280;9707;49.158;8.632;2023-04-06T02:37:25;100651.53;;;17.92;30.76
19150;BME280;9707;49.158;8.632;2023-04-06T02:39:50;100659.63;;;17.92;30.80
19150;BME280;9707;49.158;8.632;2023-04-06T02:42:16;100648.09;;;17.90;30.86
19150;BME280;9707;49.158;8.632;2023-04-06T02:44:42;100649.91;;;17.89;30.91
19150;BME280;9707;49.158;8.632;2023-04-06T02:47:07;100650.78;;;17.90;30.83
19150;BME280;9707;49.158;8.632;2023-04-06T02:49:32;100653.50;;;17.90;31.16
19150;BME280;9707;49.158;8.632;2023-04-06T02:51:57;100648.09;;;17.90;30.80
19150;BME280;9707;49.158;8.632;2023-04-06T02:54:23;100642.72;;;17.90;31.07
19150;BME280;9707;49.158;8.632;2023-04-06T02:56:48;100640.00;;;17.90;31.55
19150;BME280;9707;49.158;8.632;2023-04-06T02:59:13;100635.59;;;17.89;31.13
19150;BME280;9707;49.158;8.632;2023-04-06T03:01:38;100638.28;;;17.89;31.25
19150;BME280;9707;49.158;8.632;2023-04-06T03:04:04;100633.00;;;17.87;30.94
19150;BME280;9707;49.158;8.632;2023-04-06T03:06:29;100637.50;;;17.87;30.79
19150;BME280;9707;49.158;8.632;2023-04-06T03:08:55;100639.44;;;17.85;30.73
19150;BME280;9707;49.158;8.632;2023-04-06T03:11:20;100643.97;;;17.84;31.09
19150;BME280;9707;49.158;8.632;2023-04-06T03:13:46;100643.09;;;17.84;31.33
19150;BME280;9707;49.158;8.632;2023-04-06T03:16:11;100639.53;;;17.83;31.44
19150;BME280;9707;49.158;8.632;2023-04-06T03:18:37;100638.56;;;17.84;31.41
19150;BME280;9707;49.158;8.632;2023-04-06T03:21:02;100638.56;;;17.84;31.07
19150;BME280;9707;49.158;8.632;2023-04-06T03:23:27;100631.44;;;17.83;31.37
19150;BME280;9707;49.158;8.632;2023-04-06T03:25:53;100636.00;;;17.83;31.17
19150;BME280;9707;49.158;8.632;2023-04-06T03:28:18;100637.91;;;17.81;31.31
19150;BME280;9707;49.158;8.632;2023-04-06T03:30:44;100639.63;;;17.82;31.27
19150;BME280;9707;49.158;8.632;2023-04-06T03:33:09;100641.56;;;17.80;31.24
19150;BME280;9707;49.158;8.632;2023-04-06T03:35:35;100640.69;;;17.79;31.49
19150;BME280;9707;49.158;8.632;2023-04-06T03:38:01;100650.63;;;17.79;31.53
19150;BME280;9707;49.158;8.632;2023-04-06T03:40:27;100649.66;;;17.80;31.46
19150;BME280;9707;49.158;8.632;2023-04-06T03:42:52;100653.31;;;17.79;31.34
19150;BME280;9707;49.158;8.632;2023-04-06T03:45:17;100652.34;;;17.80;31.40
19150;BME280;9707;49.158;8.632;2023-04-06T03:47:42;100650.63;;;17.79;31.46
19150;BME280;9707;49.158;8.632;2023-04-06T03:50:08;100646.09;;;17.79;31.38
19150;BME280;9707;49.158;8.632;2023-04-06T03:52:34;100649.66;;;17.80;31.75
19150;BME280;9707;49.158;8.632;2023-04-06T03:55:00;100649.75;;;17.78;31.25
19150;BME280;9707;49.158;8.632;2023-04-06T03:57:25;100652.53;;;17.77;31.19
19150;BME280;9707;49.158;8.632;2023-04-06T03:59:50;100657.06;;;17.76;31.50
19150;BME280;9707;49.158;8.632;2023-04-06T04:02:15;100650.81;;;17.76;31.70
19150;BME280;9707;49.158;8.632;2023-04-06T04:04:41;100650.81;;;17.76;31.54
19150;BME280;9707;49.158;8.632;2023-04-06T04:07:06;100656.19;;;17.76;31.42
19150;BME280;9707;49.158;8.632;2023-04-06T04:09:31;100654.47;;;17.75;31.63
19150;BME280;9707;49.158;8.632;2023-04-06T04:11:56;100657.16;;;17.75;31.68
19150;BME280;9707;49.158;8.632;2023-04-06T04:14:22;100658.13;;;17.74;31.34
19150;BME280;9707;49.158;8.632;2023-04-06T04:16:47;100657.25;;;17.73;31.51
19150;BME280;9707;49.158;8.632;2023-04-06T04:19:12;100662.75;;;17.72;31.40
19150;BME280;9707;49.158;8.632;2023-04-06T04:21:45;100674.41;;;17.72;31.69
19150;BME280;9707;49.158;8.632;2023-04-06T04:24:11;100677.09;;;17.72;31.71
19150;BME280;9707;49.158;8.632;2023-04-06T04:26:37;100676.22;;;17.72;31.11
19150;BME280;9707;49.158;8.632;2023-04-06T04:29:03;100677.19;;;17.71;31.65
19150;BME280;9707;49.158;8.632;2023-04-06T04:31:28;100669.09;;;17.71;31.37
19150;BME280;9707;49.158;8.632;2023-04-06T04:33:53;100675.53;;;17.68;31.77
19150;BME280;9707;49.158;8.632;2023-04-06T04:36:18;100678.31;;;17.67;31.61
19150;BME280;9707;49.158;8.632;2023-04-06T04:38:44;100672.84;;;17.68;31.74
19150;BME280;9707;49.158;8.632;2023-04-06T04:41:09;100674.69;;;17.68;31.80
19150;BME280;9707;49.158;8.632;2023-04-06T04:43:34;100690.88;;;17.68;31.78
19150;BME280;9707;49.158;8.632;2023-04-06T04:46:00;100675.53;;;17.68;32.01
19150;BME280;9707;49.158;8.632;2023-04-06T04:48:25;100686.31;;;17.68;31.90
19150;BME280;9707;49.158;8.632;2023-04-06T04:50:51;100684.59;;;17.67;32.04
19150;BME280;9707;49.158;8.632;2023-04-06T04:53:16;100687.28;;;17.67;31.98
19150;BME280;9707;49.158;8.632;2023-04-06T04:55:41;100680.09;;;17.68;31.65
19150;BME280;9707;49.158;8.632;2023-04-06T04:58:07;100689.09;;;17.67;31.66
19150;BME280;9707;49.158;8.632;2023-04-06T05:00:34;100689.22;;;17.65;31.39
19150;BME280;9707;49.158;8.632;2023-04-06T05:02:59;100698.25;;;17.64;31.83
19150;BME280;9707;49.158;8.632;2023-04-06T05:05:24;100690.16;;;17.64;32.07
19150;BME280;9707;49.158;8.632;2023-04-06T05:07:50;100694.69;;;17.64;31.78
19150;BME280;9707;49.158;8.632;2023-04-06T05:10:15;100692.00;;;17.64;31.84
19150;BME280;9707;49.158;8.632;2023-04-06T05:12:40;100688.44;;;17.63;31.96
19150;BME280;9707;49.158;8.632;2023-04-06T05:15:06;100696.50;;;17.63;31.92
19150;BME280;9707;49.158;8.632;2023-04-06T05:17:32;100700.09;;;17.64;31.80
19150;BME280;9707;49.158;8.632;2023-04-06T05:19:58;100701.81;;;17.65;31.51
19150;BME280;9707;49.158;8.632;2023-04-06T05:22:23;100704.69;;;17.62;31.60
19150;BME280;9707;49.158;8.632;2023-04-06T05:24:48;100704.69;;;17.62;31.75
19150;BME280;9707;49.158;8.632;2023-04-06T05:27:14;100703.94;;;17.60;31.70
19150;BME280;9707;49.158;8.632;2023-04-06T05:29:39;100703.94;;;17.60;32.07
19150;BME280;9707;49.158;8.632;2023-04-06T05:32:05;100705.75;;;17.59;32.38
19150;BME280;9707;49.158;8.632;2023-04-06T05:34:31;100712.97;;;17.59;31.51
19150;BME280;9707;49.158;8.632;2023-04-06T05:36:56;100712.97;;;17.59;31.69
19150;BME280;9707;49.158;8.632;2023-04-06T05:39:21;100710.28;;;17.59;31.85
19150;BME280;9707;49.158;8.632;2023-04-06T05:41:47;100713.94;;;17.58;31.71
19150;BME280;9707;49.158;8.632;2023-04-06T05:44:13;100712.19;;;17.57;30.92
19150;BME280;9707;49.158;8.632;2023-04-06T05:46:38;100722.22;;;17.55;31.49
19150;BME280;9707;49.158;8.632;2023-04-06T05:49:03;100730.38;;;17.53;31.58
19150;BME280;9707;49.158;8.632;2023-04-06T05:51:29;100715.28;;;17.51;31.38
19150;BME280;9707;49.158;8.632;2023-04-06T05:53:54;100730.59;;;17.50;31.33
19150;BME280;9707;49.158;8.632;2023-04-06T05:56:19;100727.09;;;17.48;31.31
19150;BME280;9707;49.158;8.632;2023-04-06T05:58:45;100725.47;;;17.46;31.04
19150;BME280;9707;49.158;8.632;2023-04-06T06:01:11;100737.19;;;17.45;31.93
19150;BME280;9707;49.158;8.632;2023-04-06T06:03:36;100729.22;;;17.43;31.61
19150;BME280;9707;49.158;8.632;2023-04-06T06:06:02;100735.47;;;17.44;31.70
19150;BME280;9707;49.158;8.632;2023-04-06T06:08:28;100735.47;;;17.44;31.38
19150;BME280;9707;49.158;8.632;2023-04-06T06:10:54;100726.63;;;17.42;31.39
19150;BME280;9707;49.158;8.632;2023-04-06T06:13:19;100730.25;;;17.41;29.34
19150;BME280;9707;49.158;8.632;2023-04-06T06:15:44;100730.81;;;17.32;28.77
19150;BME280;9707;49.158;8.632;2023-04-06T06:18:10;100726.81;;;17.23;28.67
19150;BME280;9707;49.158;8.632;2023-04-06T06:20:35;100730.88;;;17.16;28.96
19150;BME280;9707;49.158;8.632;2023-04-06T06:23:04;100727.59;;;17.11;28.65
19150;BME280;9707;49.158;8.632;2023-04-06T06:25:29;100731.50;;;17.06;28.77
19150;BME280;9707;49.158;8.632;2023-04-06T06:27:56;100730.91;;;17.01;28.94
19150;BME280;9707;49.158;8.632;2023-04-06T06:30:21;100732.06;;;16.97;28.54
19150;BME280;9707;49.158;8.632;2023-04-06T06:32:46;100740.31;;;16.94;28.89
19150;BME280;9707;49.158;8.632;2023-04-06T06:35:11;100740.47;;;16.91;28.98
19150;BME280;9707;49.158;8.632;2023-04-06T06:37:37;100729.03;;;16.87;28.52
19150;BME280;9707;49.158;8.632;2023-04-06T06:40:02;100731.81;;;16.86;29.07
19150;BME280;9707;49.158;8.632;2023-04-06T06:42:27;100725.59;;;16.85;29.27
19150;BME280;9707;49.158;8.632;2023-04-06T06:44:53;100733.72;;;16.84;29.22
19150;BME280;9707;49.158;8.632;2023-04-06T06:47:19;100737.19;;;16.86;31.07
19150;BME280;9707;49.158;8.632;2023-04-06T06:49:44;100728.00;;;16.90;31.64
19150;BME280;9707;49.158;8.632;2023-04-06T06:52:09;100737.44;;;16.97;31.48
19150;BME280;9707;49.158;8.632;2023-04-06T06:54:35;100732.66;;;17.02;32.07
19150;BME280;9707;49.158;8.632;2023-04-06T06:57:00;100728.81;;;17.06;31.27
19150;BME280;9707;49.158;8.632;2023-04-06T06:59:25;100734.03;;;17.09;31.61
19150;BME280;9707;49.158;8.632;2023-04-06T07:01:51;100733.84;;;17.12;nan
19150;BME280;9707;49.158;8.632;2023-04-06T07:04:16;100727.28;;;17.16;31.35
19150;BME280;9707;49.158;8.632;2023-04-06T07:06:41;100724.50;;;17.17;31.37
19150;BME280;9707;49.158;8.632;2023-04-06T07:09:06;100734.31;;;17.18;30.55
19150;BME280;9707;49.158;8.632;2023-04-06T07:11:32;100726.25;;;17.18;30.57
19150;BME280;9707;49.158;8.632;2023-04-06T07:13:57;100728.84;;;17.20;31.31
19150;BME280;9707;49.158;8.632;2023-04-06T07:16:22;100718.88;;;17.22;31.94
19150;BME280;9707;49.158;8.632;2023-04-06T07:18:48;100725.03;;;17.24;31.97
19150;BME280;9707;49.158;8.632;2023-04-06T07:21:13;100721.28;;;17.26;32.18
19150;BME280;9707;49.158;8.632;2023-04-06T07:23:38;100718.28;;;17.31;32.22
19150;BME280;9707;49.158;8.632;2023-04-06T07:26:03;100721.78;;;17.33;31.81
19150;BME280;9707;49.158;8.632;2023-04-06T07:28:29;100727.91;;;17.35;32.05
19150;BME280;9707;49.158;8.632;2023-04-06T07:30:54;100734.09;;;17.37;31.91
19150;BME280;9707;49.158;8.632;2023-04-06T07:33:20;100723.22;;;17.38;31.31
19150;BME280;9707;49.158;8.632;2023-04-06T07:35:45;100729.31;;;17.42;32.24
19150;BME280;9707;49.158;8.632;2023-04-06T07:38:10;100724.69;;;17.44;32.17
19150;BME280;9707;49.158;8.632;2023-04-06T07:40:36;100719.13;;;17.47;32.14
19150;BME280;9707;49.158;8.632;2023-04-06T07:43:01;100714.50;;;17.49;32.33
19150;BME280;9707;49.158;8.632;2023-04-06T07:45:27;100724.22;;;17.51;32.16
19150;BME280;9707;49.158;8.632;2023-04-06T07:47:52;100720.47;;;17.54;32.09
19150;BME280;9707;49.158;8.632;2023-04-06T07:50:17;100718.53;;;17.56;32.02
19150;BME280;9707;49.158;8.632;2023-04-06T07:52:43;100722.03;;;17.58;32.10
19150;BME280;9707;49.158;8.632;2023-04-06T07:55:08;100720.09;;;17.60;32.28
19150;BME280;9707;49.158;8.632;2023-04-06T07:57:33;100716.44;;;17.61;32.15
19150;BME280;9707;49.158;8.632;2023-04-06T07:59:59;100717.22;;;17.63;32.32
19150;BME280;9707;49.158;8.632;2023-04-06T08:02:24;100713.47;;;17.65;32.06
19150;BME280;9707;49.158;8.632;2023-04-06T08:04:49;100707.13;;;17.66;31.69
19150;BME280;9707;49.158;8.632;2023-04-06T08:07:15;100711.44;;;17.69;32.23
19150;BME280;9707;49.158;8.632;2023-04-06T08:09:40;100708.66;;;17.70;31.99
19150;BME280;9707;49.158;8.632;2023-04-06T08:12:05;100714.81;;;17.72;31.19
19150;BME280;9707;49.158;8.632;2023-04-06T08:14:31;100715.69;;;17.73;32.02
19150;BME280;9707;49.158;8.632;2023-04-06T08:16:56;100708.38;;;17.75;32.12
19150;BME280;9707;49.158;8.632;2023-04-06T08:19:21;100718.16;;;17.76;31.49
19150;BME280;9707;49.158;8.632;2023-04-06T08:21:47;100713.66;;;17.76;31.96
19150;BME280;9707;49.158;8.632;2023-04-06T08:24:13;100708.19;;;17.78;31.76
19150;BME280;9707;49.158;8.632;2023-04-06T08:26:38;100712.59;;;17.79;31.58
19150;BME280;9707;49.158;8.632;2023-04-06T08:29:04;100703.63;;;17.78;31.15
19150;BME280;9707;49.158;8.632;2023-04-06T08:31:33;100713.19;;;17.84;31.24
19150;BME280;9707;49.158;8.632;2023-04-06T08:33:58;100716.84;;;17.83;30.95
19150;BME280;9707;49.158;8.632;2023-04-06T08:36:26;100713.19;;;17.84;30.93
19150;BME280;9707;49.158;8.632;2023-04-06T08:38:51;100712.22;;;17.85;30.72
19150;BME280;9707;49.158;8.632;2023-04-06T08:41:17;100717.59;;;17.85;31.38
19150;BME280;9707;49.158;8.632;2023-04-06T08:43:46;100717.50;;;17.86;30.50
19150;BME280;9707;49.158;8.632;2023-04-06T08:46:12;100716.63;;;17.86;30.69
19150;BME280;9707;49.158;8.632;2023-04-06T08:48:41;100711.16;;;17.87;31.26
19150;BME280;9707;49.158;8.632;2023-04-06T08:51:11;100712.78;;;17.90;31.42
19150;BME280;9707;49.158;8.632;2023-04-06T08:53:37;100710.84;;;17.92;30.91
19150;BME280;9707;49.158;8.632;2023-04-06T08:56:04;100715.38;;;17.91;29.67
19150;BME280;9707;49.158;8.632;2023-04-06T08:58:34;100711.91;;;17.89;29.50
19150;BME280;9707;49.158;8.632;2023-04-06T09:01:00;100708.38;;;17.89;30.29
19150;BME280;9707;49.158;8.632;2023-04-06T09:03:28;100705.56;;;17.90;30.24
19150;BME280;9707;49.158;8.632;2023-04-06T09:05:54;100709.13;;;17.91;30.05
19150;BME280;9707;49.158;8.632;2023-04-06T09:08:20;100699.13;;;17.93;30.15
19150;BME280;9707;49.158;8.632;2023-04-06T09:10:45;100708.06;;;17.93;29.70
19150;BME280;9707;49.158;8.632;2023-04-06T09:13:11;100696.44;;;17.93;29.28
19150;BME280;9707;49.158;8.632;2023-04-06T09:15:37;100698.25;;;17.92;29.83
19150;BME280;9707;49.158;8.632;2023-04-06T09:18:02;100699.00;;;17.94;29.66
19150;BME280;9707;49.158;8.632;2023-04-06T09:20:28;100706.16;;;17.95;30.05
19150;BME280;9707;49.158;8.632;2023-04-06T09:22:54;100702.47;;;17.96;29.12
19150;BME280;9707;49.158;8.632;2023-04-06T09:25:22;100700.63;;;17.97;29.60
19150;BME280;9707;49.158;8.632;2023-04-06T09:27:49;100696.88;;;17.99;29.68
19150;BME280;9707;49.158;8.632;2023-04-06T09:30:22;100694.09;;;18.01;29.85
19150;BME280;9707;49.158;8.632;2023-04-06T09:32:51;100686.78;;;18.03;29.45
19150;BME280;9707;49.158;8.632;2023-04-06T09:35:17;100688.50;;;18.04;29.11
19150;BME280;9707;49.158;8.632;2023-04-06T09:37:46;100687.63;;;18.03;29.48
19150;BME280;9707;49.158;8.632;2023-04-06T09:40:13;100691.97;;;18.06;30.09
19150;BME280;9707;49.158;8.632;2023-04-06T09:42:41;100691.78;;;18.09;30.05
19150;BME280;9707;49.158;8.632;2023-04-06T09:45:06;100693.31;;;18.13;30.53
19150;BME280;9707;49.158;8.632;2023-04-06T09:47:32;100689.44;;;18.17;30.58
19150;BME280;9707;49.158;8.632;2023-04-06T09:49:59;100684.72;;;18.20;30.34
19150;BME280;9707;49.158;8.632;2023-04-06T09:52:32;100681.91;;;18.22;30.17
19150;BME280;9707;49.158;8.632;2023-04-06T09:55:04;100688.84;;;18.26;30.88
19150;BME280;9707;49.158;8.632;2023-04-06T09:57:45;100680.56;;;18.29;31.29
19150;BME280;9707;49.158;8.632;2023-04-06T10:00:17;100678.56;;;18.32;30.58
19150;BME280;9707;49.158;8.632;2023-04-06T10:05:37;100685.47;;;18.36;30.72
19150;BME280;9707;49.158;8.632;2023-04-06T10:08:09;100677.25;;;18.38;30.93
19150;BME280;9707;49.158;8.632;2023-04-06T10:10:35;100678.06;;;18.40;30.33
19150;BME280;9707;49.158;8.632;2023-04-06T10:13:01;100673.41;;;18.42;30.44
19150;BME280;9707;49.158;8.632;2023-04-06T10:15:30;100672.25;;;18.46;29.50
19150;BME280;9707;49.158;8.632;2023-04-06T10:17:59;100673.22;;;18.45;28.76
19150;BME280;9707;49.158;8.632;2023-04-06T10:20:35;100680.34;;;18.46;28.54
19150;BME280;9707;49.158;8.632;2023-04-06T10:23:08;100672.16;;;18.47;29.88
19150;BME280;9707;49.158;8.632;2023-04-06T10:25:34;100669.13;;;18.52;30.74
19150;BME280;9707;49.158;8.632;2023-04-06T10:28:06;100658.16;;;18.55;28.34
19150;BME280;9707;49.158;8.632;2023-04-06T10:30:33;100668.94;;;18.55;28.39
19150;BME280;9707;49.158;8.632;2023-04-06T10:32:59;100657.16;;;18.56;27.92
19150;BME280;9707;49.158;8.632;2023-04-06T10:35:36;100660.75;;;18.56;28.33
19150;BME280;9707;49.158;8.632;2023-04-06T10:38:03;100656.97;;;18.59;28.65
19150;BME280;9707;49.158;8.632;2023-04-06T10:40:28;100649.63;;;18.61;29.22
19150;BME280;9707;49.158;8.632;2023-04-06T10:42:55;100661.19;;;18.63;28.20
19150;BME280;9707;49.158;8.632;2023-04-06T10:45:23;100651.34;;;18.62;27.41
19150;BME280;9707;49.158;8.632;2023-04-06T10:47:50;100650.38;;;18.63;27.54
19150;BME280;9707;49.158;8.632;2023-04-06T10:50:17;100652.22;;;18.62;27.02
19150;BME280;9707;49.158;8.632;2023-04-06T10:52:46;100645.22;;;18.60;26.19
19150;BME280;9707;49.158;8.632;2023-04-06T10:55:13;100638.09;;;18.59;26.68
19150;BME280;9707;49.158;8.632;2023-04-06T10:57:38;100641.53;;;18.61;26.17
19150;BME280;9707;49.158;8.632;2023-04-06T11:00:07;100639.81;;;18.60;25.25
19150;BME280;9707;49.158;8.632;2023-04-06T11:02:34;100635.59;;;18.56;25.43
19150;BME280;9707;49.158;8.632;2023-04-06T11:04:59;100640.00;;;18.57;25.36
19150;BME280;9707;49.158;8.632;2023-04-06T11:07:25;100637.31;;;18.57;25.18
19150;BME280;9707;49.158;8.632;2023-04-06T11:09:52;100648.88;;;18.59;25.62
19150;BME280;9707;49.158;8.632;2023-04-06T11:12:27;100637.13;;;18.60;25.12
19150;BME280;9707;49.158;8.632;2023-04-06T11:14:58;100635.25;;;18.60;25.05
19150;BME280;9707;49.158;8.632;2023-04-06T11:17:30;100632.47;;;18.62;25.10
19150;BME280;9707;49.158;8.632;2023-04-06T11:19:56;100625.91;;;18.66;25.50
19150;BME280;9707;49.158;8.632;2023-04-06T11:22:22;100621.38;;;18.66;25.38
19150;BME280;9707;49.158;8.632;2023-04-06T11:24:47;100622.88;;;18.70;25.10
19150;BME280;9707;49.158;8.632;2023-04-06T11:27:14;100612.00;;;18.72;25.68
19150;BME280;9707;49.158;8.632;2023-04-06T11:29:41;100613.50;;;18.76;25.85
19150;BME280;9707;49.158;8.632;2023-04-06T11:32:07;100618.72;;;18.79;25.81
19150;BME280;9707;49.158;8.632;2023-04-06T11:34:36;100607.69;;;18.82;25.36
19150;BME280;9707;49.158;8.632;2023-04-06T11:37:03;100607.50;;;18.85;25.54
19150;BME280;9707;49.158;8.632;2023-04-06T11:39:31;100600.13;;;18.87;24.81
19150;BME280;9707;49.158;8.632;2023-04-06T11:42:01;100599.06;;;18.89;25.08
19150;BME280;9707;49.158;8.632;2023-04-06T11:47:02;100596.25;;;18.91;23.88
19150;BME280;9707;49.158;8.632;2023-04-06T11:49:28;100589.88;;;18.92;23.77
19150;BME280;9707;49.158;8.632;2023-04-06T11:51:54;100590.66;;;18.94;23.53
19150;BME280;9707;49.158;8.632;2023-04-06T11:54:40;100586.97;;;18.95;23.88
19150;BME280;9707;49.158;8.632;2023-04-06T11:57:07;100585.91;;;18.97;23.48
19150;BME280;9707;49.158;8.632;2023-04-06T11:59:32;100577.72;;;18.99;23.52
19150;BME280;9707;49.158;8.632;2023-04-06T12:01:58;100582.13;;;19.00;23.05
19150;BME280;9707;49.158;8.632;2023-04-06T12:04:23;100579.44;;;19.00;22.73
19150;BME280;9707;49.158;8.632;2023-04-06T12:06:49;100575.75;;;19.01;23.08
19150;BME280;9707;49.158;8.632;2023-04-06T12:09:15;100578.34;;;19.02;22.43
19150;BME280;9707;49.158;8.632;2023-04-06T12:11:42;100579.19;;;19.03;22.29
19150;BME280;9707;49.158;8.632;2023-04-06T12:14:07;100575.41;;;19.05;22.76
19150;BME280;9707;49.158;8.632;2023-04-06T12:16:33;100578.88;;;19.07;22.49
19150;BME280;9707;49.158;8.632;2023-04-06T12:18:59;100574.13;;;19.11;22.79
19150;BME280;9707;49.158;8.632;2023-04-06T12:21:27;100571.19;;;19.14;23.08
19150;BME280;9707;49.158;8.632;2023-04-06T12:23:52;100557.59;;;19.15;22.67
19150;BME280;9707;49.158;8.632;2023-04-06T12:26:18;100563.63;;;19.19;23.39
19150;BME280;9707;49.158;8.632;2023-04-06T12:28:43;100567.09;;;19.21;23.01
19150;BME280;9707;49.158;8.632;2023-04-06T12:31:14;100556.09;;;19.24;22.81
19150;BME280;9707;49.158;8.632;2023-04-06T12:33:40;100560.56;;;19.25;22.52
19150;BME280;9707;49.158;8.632;2023-04-06T12:36:11;100561.28;;;19.27;22.59
19150;BME280;9707;49.158;8.632;2023-04-06T12:38:37;100556.63;;;19.29;22.14
19150;BME280;9707;49.158;8.632;2023-04-06T12:41:05;100548.31;;;19.32;22.54
19150;BME280;9707;49.158;8.632;2023-04-06T12:43:30;100558.03;;;19.34;22.40
19150;BME280;9707;49.158;8.632;2023-04-06T12:45:55;100550.69;;;19.36;22.31
19150;BME280;9707;49.158;8.632;2023-04-06T12:48:21;100552.28;;;19.39;22.33
19150;BME280;9707;49.158;8.632;2023-04-06T12:50:54;100552.19;;;19.40;22.28
19150;BME280;9707;49.158;8.632;2023-04-06T12:53:19;100546.56;;;19.43;22.13
19150;BME280;9707;49.158;8.632;2023-04-06T12:55:45;100548.19;;;19.46;22.42
19150;BME280;9707;49.158;8.632;2023-04-06T12:58:10;100548.94;;;19.48;22.14
19150;BME280;9707;49.158;8.632;2023-04-06T13:00:36;100546.13;;;19.49;21.70